Point Vivian, New York
Current Conditions -  °F | °C
As of 3:58 PM on Monday 24 Nov 2014 (Local Time) from KGTB Reporting Station
Broken Clouds Broken Clouds  
Wind Chill: 65°   Ceiling: 12000
Heat Index: 65°   Visibility: 10mi
Dew Point: 49°   Wind: 23mph
Humidity: 56%   Direction: 200°SSW
Pressure: 29.29"   Gusts: 30mph
Location:  44.3057°N, 75.9374°W
Report Text: KGTB 242058Z AUTO 20020G26KT 10SM FEW060 BKN120 18/09 A2929 RMK AO2 PK WND 20034/30 SLP919 T01810093 20034 55004
Loading
Personal Weather Stations






























Interactive Weather Map New forecast layout! Learn more

10-Day Weather Forecast

Advertisements
Track Severe Weather on mobile